createdAt,value
2022-09-29T00:01:47.691Z,8.15
2022-09-29T00:04:50.253Z,7.35
2022-09-29T00:07:52.700Z,7.20
2022-09-29T00:10:58.359Z,6.95
2022-09-29T00:14:00.792Z,6.73
2022-09-29T00:17:03.467Z,6.45
2022-09-29T00:20:06.763Z,6.62
2022-09-29T00:23:09.387Z,7.93
2022-09-29T00:26:18.218Z,6.57
2022-09-29T00:29:20.795Z,7.73
2022-09-29T00:32:23.259Z,7.30
2022-09-29T00:35:25.839Z,7.37
2022-09-29T00:38:29.411Z,6.68
2022-09-29T00:41:35.029Z,6.70
2022-09-29T00:44:49.804Z,5.83
2022-09-29T00:48:04.806Z,5.87
2022-09-29T00:51:07.915Z,6.15
2022-09-29T00:54:10.723Z,8.35
2022-09-29T00:57:14.920Z,7.05
2022-09-29T01:00:18.002Z,6.87
2022-09-29T01:03:22.834Z,6.40
2022-09-29T01:06:35.207Z,6.37
2022-09-29T01:09:39.235Z,6.80
2022-09-29T01:12:42.973Z,7.28
2022-09-29T01:15:50.972Z,6.23
2022-09-29T01:18:56.572Z,5.68
2022-09-29T01:22:20.355Z,7.20
2022-09-29T01:25:34.992Z,6.85
2022-09-29T01:29:05.384Z,5.43
2022-09-29T01:32:25.070Z,5.90
2022-09-29T01:35:54.760Z,5.10
2022-09-29T01:39:24.986Z,5.40
2022-09-29T01:42:31.252Z,6.82
2022-09-29T01:45:42.030Z,5.82
2022-09-29T01:48:51.865Z,5.77
2022-09-29T01:52:03.818Z,7.07
2022-09-29T01:55:09.620Z,8.00
2022-09-29T01:58:21.494Z,5.82
2022-09-29T02:01:29.591Z,6.65
2022-09-29T02:04:36.266Z,7.23
2022-09-29T02:07:43.547Z,5.30
2022-09-29T02:11:00.092Z,6.10
2022-09-29T02:14:11.055Z,5.55
2022-09-29T02:17:20.217Z,5.18
2022-09-29T02:20:23.660Z,4.93
2022-09-29T02:23:26.114Z,6.72
2022-09-29T02:26:34.590Z,6.60
2022-09-29T02:29:38.084Z,6.40
2022-09-29T02:32:40.560Z,5.53
2022-09-29T02:36:04.276Z,7.07
2022-09-29T02:39:28.739Z,6.35
2022-09-29T02:42:46.569Z,6.07
2022-09-29T02:46:03.337Z,6.40
2022-09-29T02:49:08.787Z,7.60
2022-09-29T02:52:49.017Z,7.00
2022-09-29T02:55:57.825Z,7.32
2022-09-29T02:59:10.889Z,6.95
2022-09-29T03:02:16.583Z,6.03
2022-09-29T03:05:21.390Z,6.43
2022-09-29T03:08:24.030Z,4.23
2022-09-29T03:11:30.334Z,4.90
2022-09-29T03:14:32.863Z,3.58
2022-09-29T03:17:36.202Z,4.07
2022-09-29T03:20:38.633Z,3.35
2022-09-29T03:23:41.167Z,3.70
2022-09-29T03:26:43.635Z,4.15
2022-09-29T03:29:46.113Z,3.20
2022-09-29T03:32:48.557Z,3.12
2022-09-29T03:35:50.998Z,3.75
2022-09-29T03:38:53.515Z,3.40
2022-09-29T03:41:56.463Z,3.22
2022-09-29T03:44:58.983Z,4.78
2022-09-29T03:48:02.235Z,4.18
2022-09-29T03:51:04.895Z,3.37
2022-09-29T03:54:07.581Z,4.87
2022-09-29T03:57:10.095Z,4.03
2022-09-29T04:00:13.227Z,3.53
2022-09-29T04:03:16.215Z,5.05
2022-09-29T04:06:18.686Z,4.22
2022-09-29T04:09:21.124Z,3.27
2022-09-29T04:12:23.625Z,6.45
2022-09-29T04:15:26.069Z,4.03
2022-09-29T04:18:29.158Z,3.45
2022-09-29T04:21:31.563Z,3.65
2022-09-29T04:24:34.055Z,3.93
2022-09-29T04:27:36.612Z,5.60
2022-09-29T04:30:39.120Z,3.35
2022-09-29T04:33:41.730Z,5.95
2022-09-29T04:36:44.280Z,4.15
2022-09-29T04:39:49.990Z,4.00
2022-09-29T04:42:52.565Z,3.83
2022-09-29T04:46:02.143Z,3.65
2022-09-29T04:49:06.783Z,5.07
2022-09-29T04:52:12.251Z,4.95
2022-09-29T04:55:17.498Z,3.63
2022-09-29T04:58:20.269Z,7.10
2022-09-29T05:01:22.794Z,6.22
2022-09-29T05:04:28.388Z,5.97
2022-09-29T05:07:30.932Z,5.47
2022-09-29T05:10:33.455Z,6.60
2022-09-29T13:02:28.274Z,9.25
2022-09-29T13:06:05.503Z,5.95
2022-09-29T13:09:40.524Z,5.95
2022-09-29T13:12:56.904Z,6.20
2022-09-29T13:16:38.720Z,6.37
2022-09-29T13:20:28.833Z,7.05
2022-09-29T13:23:39.184Z,5.90
2022-09-29T13:26:52.928Z,7.72
2022-09-29T13:30:16.071Z,6.32
2022-09-29T13:33:21.550Z,8.50
2022-09-29T13:36:28.468Z,5.95
2022-09-29T13:39:31.417Z,7.22
2022-09-29T13:42:37.469Z,6.20
2022-09-29T13:45:41.991Z,6.45
2022-09-29T13:48:52.903Z,6.30
2022-09-29T13:52:08.625Z,7.57
2022-09-29T13:55:56.516Z,6.47
2022-09-29T13:59:01.212Z,6.75
2022-09-29T14:02:36.597Z,6.87
2022-09-29T14:05:45.907Z,6.90
2022-09-29T14:08:55.764Z,6.47
2022-09-29T14:12:05.015Z,6.60
2022-09-29T14:15:08.169Z,6.80
2022-09-29T14:18:34.610Z,6.87
2022-09-29T14:21:56.027Z,7.23
2022-09-29T14:25:11.353Z,7.05
2022-09-29T14:28:18.543Z,5.62
2022-09-29T14:31:23.221Z,6.37
2022-09-29T14:34:29.087Z,7.45
2022-09-29T14:37:34.736Z,6.37
2022-09-29T14:40:50.898Z,6.28
2022-09-29T14:44:19.159Z,7.47
2022-09-29T14:47:57.342Z,6.50
2022-09-29T14:51:27.672Z,5.43
2022-09-29T14:54:44.619Z,6.80
2022-09-29T14:58:21.774Z,5.80
2022-09-29T15:01:33.109Z,7.30
2022-09-29T15:04:39.796Z,6.80
2022-09-29T15:07:43.204Z,7.68
2022-09-29T15:10:47.154Z,6.60
2022-09-29T15:13:49.815Z,7.93
2022-09-29T15:17:20.276Z,6.10
2022-09-29T15:20:23.676Z,5.40
2022-09-29T15:23:41.523Z,5.85
2022-09-29T15:26:46.657Z,8.10
2022-09-29T15:29:55.759Z,7.07
2022-09-29T15:33:28.343Z,7.53
2022-09-29T15:36:37.490Z,7.78
2022-09-29T15:39:48.499Z,8.80
2022-09-29T15:42:53.814Z,6.60
2022-09-29T15:45:59.856Z,6.57
2022-09-29T15:49:15.181Z,6.45
2022-09-29T15:52:23.434Z,6.60
2022-09-29T15:55:25.903Z,6.20
2022-09-29T15:58:31.502Z,7.10
2022-09-29T16:01:34.025Z,7.45
2022-09-29T16:04:41.205Z,5.20
2022-09-29T16:07:58.133Z,7.45
2022-09-29T16:11:05.065Z,6.35
2022-09-29T16:14:10.298Z,5.80
2022-09-29T16:17:13.288Z,6.68
2022-09-29T16:20:21.825Z,6.00
2022-09-29T16:23:30.405Z,6.93
2022-09-29T16:26:41.156Z,7.50
2022-09-29T16:29:45.354Z,6.03
2022-09-29T16:33:14.126Z,6.53
2022-09-29T16:36:22.403Z,7.35
2022-09-29T16:39:27.624Z,8.88
2022-09-29T16:42:30.594Z,6.97
2022-09-29T16:45:33.148Z,9.67
2022-09-29T16:48:41.573Z,9.02
2022-09-29T16:51:46.192Z,8.57
2022-09-29T16:54:49.316Z,10.77
2022-09-29T16:57:52.928Z,9.40
2022-09-29T17:00:56.241Z,8.77
2022-09-29T17:03:58.792Z,8.40
2022-09-29T17:07:01.455Z,8.05
2022-09-29T17:10:07.588Z,7.03
2022-09-29T17:13:15.971Z,8.82
2022-09-29T17:16:21.511Z,9.47
2022-09-29T17:19:24.438Z,8.60
2022-09-29T17:22:30.619Z,10.35
2022-09-29T17:25:34.089Z,9.40
2022-09-29T17:28:36.839Z,8.77
2022-09-29T17:31:39.778Z,13.57
2022-09-29T17:34:42.774Z,8.55
2022-09-29T17:37:50.145Z,8.38
2022-09-29T17:40:56.874Z,8.98
2022-09-29T17:43:59.664Z,8.63
2022-09-29T17:47:17.476Z,8.10
2022-09-29T17:50:29.483Z,9.30
2022-09-29T17:53:32.064Z,9.02
2022-09-29T17:56:41.528Z,11.00
2022-09-29T17:59:44.142Z,9.40
2022-09-29T18:02:46.978Z,11.17
2022-09-29T18:06:00.145Z,10.63
2022-09-29T18:09:03.942Z,9.25
2022-09-29T18:12:06.746Z,10.95
2022-09-29T18:15:10.548Z,14.85
2022-09-29T18:18:18.285Z,13.10
2022-09-29T18:21:21.680Z,15.35
2022-09-29T18:24:24.424Z,20.75
2022-09-29T18:27:27.506Z,19.60
2022-09-29T18:30:32.809Z,24.60
2022-09-29T18:33:35.341Z,21.83
2022-09-29T18:39:45.653Z,28.30
2022-09-29T18:42:52.744Z,30.45
2022-09-29T18:45:56.834Z,31.77
2022-09-29T18:48:59.717Z,31.07
2022-09-29T18:52:02.498Z,28.00
2022-09-29T18:55:06.150Z,27.40
2022-09-29T18:58:20.702Z,26.83
2022-09-29T19:01:25.540Z,26.08
2022-09-29T19:04:30.201Z,23.27
2022-09-29T19:07:32.853Z,22.77
2022-09-29T19:10:36.623Z,26.40
2022-09-29T19:13:39.457Z,24.70
2022-09-29T19:16:42.799Z,26.27
2022-09-29T19:19:45.558Z,26.87
2022-09-29T19:22:52.467Z,23.62
2022-09-29T19:25:58.769Z,23.58
2022-09-29T19:29:01.405Z,24.67
2022-09-29T19:32:07.065Z,26.05
2022-09-29T19:35:12.505Z,23.03
2022-09-29T19:38:15.778Z,21.48
2022-09-29T19:41:23.700Z,20.77
2022-09-29T19:44:28.923Z,22.60
2022-09-29T19:47:32.395Z,21.50
2022-09-29T19:50:53.874Z,23.77
2022-09-29T19:54:11.544Z,22.58
2022-09-29T19:57:16.350Z,26.00
2022-09-29T20:00:21.514Z,25.10
2022-09-29T20:03:25.795Z,23.77
2022-09-29T20:06:29.054Z,22.83
2022-09-29T20:09:33.379Z,23.25
2022-09-29T20:12:36.022Z,20.80
2022-09-29T20:15:41.971Z,22.67
2022-09-29T20:18:48.707Z,22.60
2022-09-29T20:21:54.389Z,23.87
2022-09-29T20:24:57.703Z,23.48
2022-09-29T20:28:00.244Z,21.73
2022-09-29T20:31:03.431Z,20.48
2022-09-29T20:34:08.197Z,22.55
2022-09-29T20:37:12.780Z,22.10
2022-09-29T20:40:16.288Z,23.10
2022-09-29T20:43:18.758Z,25.73
2022-09-29T20:46:27.200Z,23.48
2022-09-29T20:49:30.200Z,23.48
2022-09-29T20:52:32.631Z,24.33
2022-09-29T20:55:35.657Z,32.10
2022-09-29T20:58:43.501Z,29.55
2022-09-29T21:01:50.403Z,26.52
2022-09-29T21:04:53.020Z,23.45
2022-09-29T21:07:55.986Z,23.53
2022-09-29T21:11:03.158Z,28.50
2022-09-29T21:14:15.066Z,23.27
2022-09-29T21:17:17.661Z,28.02
2022-09-29T21:20:20.173Z,28.87
2022-09-29T21:23:25.055Z,25.50
2022-09-29T21:26:31.500Z,29.25
2022-09-29T21:29:34.147Z,24.90
2022-09-29T21:32:36.720Z,22.02
2022-09-29T21:35:39.246Z,20.70
2022-09-29T21:38:42.580Z,18.53
2022-09-29T21:41:45.852Z,22.73
2022-09-29T21:44:48.474Z,20.67
2022-09-29T21:48:09.261Z,22.27
2022-09-29T21:51:14.628Z,20.65
2022-09-29T21:54:22.985Z,20.50
2022-09-29T21:57:29.378Z,19.92
2022-09-29T22:00:32.197Z,20.50
2022-09-29T22:03:37.862Z,20.95
2022-09-29T22:06:45.359Z,21.12
2022-09-29T22:09:48.128Z,19.13
2022-09-29T22:12:50.606Z,18.50
2022-09-29T22:15:54.744Z,18.23
2022-09-29T22:19:22.457Z,20.83
2022-09-29T22:22:21.596Z,21.20
2022-09-29T22:25:24.111Z,19.97
2022-09-29T22:28:27.578Z,17.67
2022-09-29T22:31:31.949Z,21.00
2022-09-29T22:34:35.251Z,16.27
2022-09-29T22:37:37.687Z,16.33
2022-09-29T22:40:40.542Z,17.30
2022-09-29T22:43:43.453Z,13.82
2022-09-29T22:46:49.337Z,14.40
2022-09-29T22:49:52.072Z,15.65
2022-09-29T22:52:57.655Z,15.85
2022-09-29T22:56:09.625Z,14.97
2022-09-29T22:59:13.355Z,15.43
2022-09-29T23:02:15.901Z,18.27
2022-09-29T23:05:18.489Z,17.25
2022-09-29T23:08:21.415Z,17.00
2022-09-29T23:11:24.386Z,15.13
2022-09-29T23:14:26.927Z,16.62
2022-09-29T23:17:32.527Z,14.57
2022-09-29T23:20:36.216Z,16.17
2022-09-29T23:23:38.765Z,16.58
2022-09-29T23:26:41.399Z,15.40
2022-09-29T23:29:43.954Z,15.98
2022-09-29T23:32:46.667Z,16.87
2022-09-29T23:35:49.399Z,17.75
2022-09-29T23:39:12.971Z,15.57
2022-09-29T23:42:15.823Z,17.73
2022-09-29T23:45:18.377Z,16.58
2022-09-29T23:48:22.489Z,18.12
2022-09-29T23:51:25.427Z,17.35
2022-09-29T23:54:29.498Z,18.80
2022-09-29T23:57:35.142Z,19.40
